TimeEST,TemperatureF,Dew PointF,Humidity,Sea Level PressureIn,VisibilityMPH,Wind Direction,Wind SpeedMPH,Gust SpeedMPH,PrecipitationIn,Events,Conditions,WindDirDegrees,DateUTC
12:54 AM,6.1,-9.0,50,29.93,-9999.0,North,-9999.0,-,N/A,,Unknown,0,2013-02-05 05:54:00
1:54 AM,5.0,-8.0,55,29.95,-9999.0,North,-9999.0,-,N/A,,Unknown,0,2013-02-05 06:54:00
2:54 AM,3.9,-9.9,53,29.96,-9999.0,North,-9999.0,-,N/A,,Unknown,0,2013-02-05 07:54:00
3:54 AM,1.9,-8.0,63,29.96,-9999.0,North,-9999.0,-,N/A,,Unknown,0,2013-02-05 08:54:00
4:54 AM,1.9,-7.1,66,29.99,-9999.0,North,-9999.0,-,N/A,,Unknown,0,2013-02-05 09:54:00
5:54 AM,-0.0,-7.1,72,30.00,-9999.0,North,-9999.0,-,N/A,,Unknown,0,2013-02-05 10:54:00
6:54 AM,-0.9,-7.1,75,30.02,-9999.0,North,-9999.0,-,N/A,,Unknown,0,2013-02-05 11:54:00
7:54 AM,-0.9,-7.1,75,30.04,-9999.0,North,-9999.0,-,N/A,,Unknown,0,2013-02-05 12:54:00
8:54 AM,1.9,-6.0,69,30.06,-9999.0,North,-9999.0,-,N/A,,Unknown,0,2013-02-05 13:54:00
9:54 AM,6.1,-9.0,50,30.06,-9999.0,North,-9999.0,-,N/A,,Unknown,0,2013-02-05 14:54:00
10:54 AM,10.0,-7.1,46,30.06,-9999.0,North,-9999.0,-,N/A,,Unknown,0,2013-02-05 15:54:00
11:54 AM,14.0,-6.0,41,30.02,-9999.0,North,-9999.0,-,N/A,,Unknown,0,2013-02-05 16:54:00
12:54 PM,16.0,-6.0,38,29.99,-9999.0,North,-9999.0,-,N/A,,Unknown,0,2013-02-05 17:54:00
1:54 PM,19.0,-5.1,34,29.98,-9999.0,North,-9999.0,-,N/A,,Unknown,0,2013-02-05 18:54:00
2:54 PM,19.9,-9.0,27,29.97,-9999.0,North,-9999.0,-,N/A,,Unknown,0,2013-02-05 19:54:00
3:54 PM,19.9,-8.0,29,29.96,-9999.0,North,-9999.0,-,N/A,,Unknown,0,2013-02-05 20:54:00
4:54 PM,19.0,-7.1,31,29.96,-9999.0,North,-9999.0,-,N/A,,Unknown,0,2013-02-05 21:54:00
5:54 PM,17.1,-0.9,45,29.97,-9999.0,North,-9999.0,-,N/A,,Unknown,0,2013-02-05 22:54:00
6:54 PM,16.0,-2.0,45,29.96,-9999.0,North,-9999.0,-,N/A,,Unknown,0,2013-02-05 23:54:00
7:54 PM,15.1,-0.9,49,29.96,-9999.0,North,-9999.0,-,N/A,,Unknown,0,2013-02-06 00:54:00
8:54 PM,15.1,1.9,56,29.96,-9999.0,North,-9999.0,-,N/A,,Unknown,0,2013-02-06 01:54:00
9:54 PM,12.9,3.0,65,29.96,-9999.0,North,-9999.0,-,N/A,,Unknown,0,2013-02-06 02:54:00
10:54 PM,14.0,3.0,62,29.95,-9999.0,North,-9999.0,-,N/A,,Unknown,0,2013-02-06 03:54:00
11:54 PM,14.0,3.0,62,29.94,-9999.0,North,-9999.0,-,N/A,,Unknown,0,2013-02-06 04:54:00